createdAt,value
2022-11-07T00:00:03.107Z,101014.00
2022-11-07T00:02:40.630Z,100999.00
2022-11-07T00:05:09.847Z,101013.00
2022-11-07T00:07:38.597Z,101025.00
2022-11-07T00:10:08.282Z,101013.00
2022-11-07T00:12:37.139Z,101021.00
2022-11-07T00:15:09.098Z,101025.00
2022-11-07T00:17:37.859Z,101031.00
2022-11-07T00:20:08.197Z,101026.00
2022-11-07T00:22:36.852Z,101025.00
2022-11-07T00:25:06.601Z,101023.00
2022-11-07T00:27:35.421Z,101027.00
2022-11-07T00:30:04.621Z,101016.00
2022-11-07T00:32:34.810Z,101025.00
2022-11-07T00:35:03.520Z,101015.00
2022-11-07T00:37:32.497Z,101023.00
2022-11-07T00:40:01.217Z,101021.00
2022-11-07T00:42:29.930Z,101017.00
2022-11-07T00:44:58.610Z,101032.00
2022-11-07T00:47:27.616Z,101023.00
2022-11-07T00:49:57.719Z,101015.00
2022-11-07T00:52:26.450Z,101008.00
2022-11-07T00:54:58.326Z,101013.00
2022-11-07T00:57:27.016Z,101005.00
2022-11-07T00:59:57.783Z,101002.00
2022-11-07T01:02:26.822Z,101011.00
2022-11-07T01:05:12.729Z,101008.00
2022-11-07T01:07:42.224Z,101001.00
2022-11-07T01:10:10.928Z,101013.00
2022-11-07T01:12:41.672Z,101015.00
2022-11-07T01:15:14.258Z,101001.00
2022-11-07T01:17:43.025Z,101010.00
2022-11-07T01:20:14.559Z,101008.00
2022-11-07T01:22:43.238Z,101000.00
2022-11-07T01:25:14.156Z,100996.00
2022-11-07T01:27:43.494Z,100998.00
2022-11-07T01:30:14.332Z,100985.00
2022-11-07T01:32:43.025Z,100977.00
2022-11-07T01:35:15.287Z,100984.00
2022-11-07T01:37:45.363Z,100980.00
2022-11-07T01:40:14.177Z,100972.00
2022-11-07T01:42:43.907Z,100961.00
2022-11-07T01:45:21.676Z,100959.00
2022-11-07T01:47:53.095Z,100955.00
2022-11-07T01:50:25.026Z,100955.00
2022-11-07T01:52:57.065Z,100956.00
2022-11-07T01:55:32.776Z,100947.00
2022-11-07T01:58:05.750Z,100951.00
2022-11-07T02:00:36.829Z,100940.00
2022-11-07T02:03:10.347Z,100950.00
2022-11-07T02:05:48.383Z,100935.00
2022-11-07T02:08:19.154Z,100936.00
2022-11-07T02:10:48.027Z,100930.00
2022-11-07T02:13:26.650Z,100930.00
2022-11-07T02:15:56.324Z,100927.00
2022-11-07T02:18:26.432Z,100927.00
2022-11-07T02:20:59.566Z,100925.00
2022-11-07T02:23:41.062Z,100925.00
2022-11-07T02:26:11.687Z,100916.00
2022-11-07T02:28:42.820Z,100922.00
2022-11-07T02:31:11.763Z,100916.00
2022-11-07T02:33:41.949Z,100909.00
2022-11-07T02:36:18.629Z,100904.00
2022-11-07T02:38:51.779Z,100900.00
2022-11-07T02:41:25.407Z,100895.00
2022-11-07T02:44:00.633Z,100894.00
2022-11-07T02:46:31.798Z,100902.00
2022-11-07T02:49:03.759Z,100896.00
2022-11-07T02:51:32.615Z,100899.00
2022-11-07T02:54:01.373Z,100898.00
2022-11-07T02:56:31.724Z,100897.00
2022-11-07T02:59:00.440Z,100884.00
2022-11-07T03:01:29.345Z,100891.00
2022-11-07T03:03:58.598Z,100897.00
2022-11-07T03:06:28.025Z,100898.00
2022-11-07T03:08:56.632Z,100910.00
2022-11-07T03:11:25.450Z,100894.00
2022-11-07T03:13:56.848Z,100907.00
2022-11-07T03:16:25.851Z,100901.00
2022-11-07T03:18:54.593Z,100901.00
2022-11-07T03:21:23.773Z,100902.00
2022-11-07T03:23:52.475Z,100895.00
2022-11-07T03:26:21.812Z,100881.00
2022-11-07T03:28:50.455Z,100874.00
2022-11-07T03:31:20.650Z,100868.00
2022-11-07T03:33:49.332Z,100870.00
2022-11-07T03:36:18.082Z,100858.00
2022-11-07T03:38:46.891Z,100858.00
2022-11-07T03:41:17.496Z,100853.00
2022-11-07T03:43:46.700Z,100845.00
2022-11-07T03:46:17.077Z,100848.00
2022-11-07T03:48:47.460Z,100852.00
2022-11-07T03:51:16.280Z,100852.00
2022-11-07T03:53:44.950Z,100855.00
2022-11-07T03:56:14.722Z,100858.00
2022-11-07T03:58:43.408Z,100855.00
2022-11-07T04:01:13.411Z,100852.00
2022-11-07T04:03:42.200Z,100846.00
2022-11-07T04:06:12.258Z,100852.00
2022-11-07T04:08:41.060Z,100845.00
2022-11-07T04:11:29.792Z,100837.00
2022-11-07T04:14:15.997Z,100838.00
2022-11-07T04:17:02.536Z,100847.00
2022-11-07T04:19:31.418Z,100837.00
2022-11-07T04:22:01.471Z,100828.00
2022-11-07T04:24:30.237Z,100829.00
2022-11-07T04:27:16.326Z,100832.00
2022-11-07T04:29:45.107Z,100834.00
2022-11-07T04:32:13.794Z,100825.00
2022-11-07T04:34:42.599Z,100832.00
2022-11-07T04:37:12.767Z,100838.00
2022-11-07T04:39:41.446Z,100843.00
2022-11-07T04:42:10.217Z,100833.00
2022-11-07T04:44:39.057Z,100819.00
2022-11-07T04:47:08.735Z,100831.00
2022-11-07T04:49:37.431Z,100821.00
2022-11-07T04:52:06.279Z,100813.00
2022-11-07T04:55:01.179Z,100819.00
2022-11-07T04:57:32.307Z,100824.00
2022-11-07T05:00:01.152Z,100826.00
2022-11-07T05:02:34.830Z,100819.00
2022-11-07T05:05:03.648Z,100822.00
2022-11-07T05:07:32.428Z,100810.00
2022-11-07T05:10:02.657Z,100803.00
2022-11-07T05:12:31.872Z,100804.00
2022-11-07T05:15:00.795Z,100800.00
2022-11-07T05:17:30.913Z,100794.00
2022-11-07T05:19:59.577Z,100802.00
2022-11-07T05:22:45.820Z,100794.00
2022-11-07T05:25:15.993Z,100787.00
2022-11-07T05:27:44.788Z,100795.00
2022-11-07T05:30:14.407Z,100803.00
2022-11-07T05:32:43.186Z,100804.00
2022-11-07T05:35:11.919Z,100797.00
2022-11-07T05:37:40.648Z,100797.00
2022-11-07T05:40:11.016Z,100803.00
2022-11-07T05:42:41.170Z,100795.00
2022-11-07T05:45:11.450Z,100797.00
2022-11-07T05:47:40.100Z,100797.00
2022-11-07T05:50:10.258Z,100808.00
2022-11-07T05:52:38.965Z,100802.00
2022-11-07T05:55:08.642Z,100796.00
2022-11-07T05:57:37.362Z,100798.00
2022-11-07T06:00:09.970Z,100794.00
2022-11-07T06:02:41.494Z,100795.00
2022-11-07T06:05:11.054Z,100798.00
2022-11-07T06:07:41.799Z,100797.00
2022-11-07T06:10:11.799Z,100809.00
2022-11-07T06:12:41.947Z,100808.00
2022-11-07T06:15:12.985Z,100799.00
2022-11-07T06:17:41.649Z,100813.00
2022-11-07T06:20:11.832Z,100804.00
2022-11-07T06:22:40.501Z,100810.00
2022-11-07T06:25:10.184Z,100794.00
2022-11-07T06:27:38.895Z,100797.00
2022-11-07T06:30:09.576Z,100792.00
2022-11-07T06:32:44.280Z,100799.00
2022-11-07T06:35:13.655Z,100804.00
2022-11-07T06:37:42.462Z,100803.00
2022-11-07T06:40:13.140Z,100802.00
2022-11-07T06:42:41.878Z,100798.00
2022-11-07T06:45:12.344Z,100791.00
2022-11-07T06:47:42.504Z,100786.00
2022-11-07T06:50:11.463Z,100787.00
2022-11-07T06:52:40.195Z,100795.00
2022-11-07T06:55:10.230Z,100795.00
2022-11-07T06:57:38.905Z,100795.00
2022-11-07T07:00:09.782Z,100790.00
2022-11-07T07:02:57.385Z,100794.00
2022-11-07T07:05:28.842Z,100793.00
2022-11-07T07:07:57.731Z,100781.00
2022-11-07T07:10:26.778Z,100787.00
2022-11-07T07:12:56.705Z,100777.00
2022-11-07T07:15:25.922Z,100784.00
2022-11-07T07:17:54.553Z,100785.00
2022-11-07T07:20:23.703Z,100789.00
2022-11-07T07:22:59.073Z,100778.00
2022-11-07T07:25:31.819Z,100787.00
2022-11-07T07:28:00.552Z,100781.00
2022-11-07T07:30:29.300Z,100778.00
2022-11-07T07:32:58.204Z,100776.00
2022-11-07T07:35:27.026Z,100787.00
2022-11-07T07:37:57.744Z,100787.00
2022-11-07T07:40:26.407Z,100788.00
2022-11-07T07:42:55.092Z,100783.00
2022-11-07T07:45:23.940Z,100777.00
2022-11-07T07:47:53.123Z,100776.00
2022-11-07T07:50:22.080Z,100776.00
2022-11-07T07:52:50.706Z,100767.00
2022-11-07T07:55:21.066Z,100769.00
2022-11-07T07:57:49.877Z,100770.00
2022-11-07T08:00:19.436Z,100781.00
2022-11-07T08:02:48.233Z,100771.00
2022-11-07T08:05:17.994Z,100773.00
2022-11-07T08:07:48.611Z,100769.00
2022-11-07T08:13:09.212Z,100752.00
2022-11-07T08:15:38.138Z,100750.00
2022-11-07T08:18:07.213Z,100745.00
2022-11-07T08:20:36.039Z,100757.00
2022-11-07T08:23:11.281Z,100736.00
2022-11-07T08:25:50.298Z,100739.00
2022-11-07T08:28:21.958Z,100739.00
2022-11-07T08:30:58.314Z,100736.00
2022-11-07T08:33:27.695Z,100741.00
2022-11-07T08:35:57.042Z,100732.00
2022-11-07T08:38:26.055Z,100737.00
2022-11-07T08:40:55.259Z,100733.00
2022-11-07T08:43:25.647Z,100731.00
2022-11-07T08:45:56.503Z,100724.00
2022-11-07T08:48:25.647Z,100729.00
2022-11-07T08:50:55.838Z,100718.00
2022-11-07T08:53:26.724Z,100708.00
2022-11-07T08:56:03.922Z,100720.00
2022-11-07T08:58:34.472Z,100714.00
2022-11-07T09:01:07.150Z,100723.00
2022-11-07T09:03:50.301Z,100737.00
2022-11-07T09:06:24.610Z,100719.00
2022-11-07T09:08:53.705Z,100727.00
2022-11-07T09:11:23.491Z,100739.00
2022-11-07T09:13:54.654Z,100727.00
2022-11-07T09:16:24.831Z,100731.00
2022-11-07T09:18:53.617Z,100724.00
2022-11-07T09:21:23.270Z,100726.00
2022-11-07T09:23:52.816Z,100719.00
2022-11-07T09:26:22.214Z,100716.00
2022-11-07T09:28:55.056Z,100716.00
2022-11-07T09:31:27.545Z,100727.00
2022-11-07T09:33:56.282Z,100715.00
2022-11-07T09:36:25.515Z,100722.00
2022-11-07T09:38:56.306Z,100720.00
2022-11-07T09:41:45.170Z,100716.00
2022-11-07T09:44:45.155Z,100715.00
2022-11-07T09:47:22.674Z,100712.00
2022-11-07T09:49:54.935Z,100712.00
2022-11-07T09:52:37.689Z,100714.00
2022-11-07T09:55:18.144Z,100719.00
2022-11-07T09:57:49.368Z,100719.00
2022-11-07T10:00:23.277Z,100720.00
2022-11-07T10:02:58.003Z,100715.00
2022-11-07T10:05:47.006Z,100721.00
2022-11-07T10:08:25.210Z,100705.00
2022-11-07T10:11:00.973Z,100715.00
2022-11-07T10:14:09.491Z,100708.00
2022-11-07T10:16:58.139Z,100710.00
2022-11-07T10:19:47.704Z,100687.00
2022-11-07T10:22:39.216Z,100699.00
2022-11-07T10:25:22.427Z,100704.00
2022-11-07T10:28:09.939Z,100698.00
2022-11-07T10:30:38.721Z,100701.00
2022-11-07T10:33:22.401Z,100695.00
2022-11-07T10:35:59.239Z,100705.00
2022-11-07T10:38:30.300Z,100715.00
2022-11-07T10:40:59.064Z,100699.00
2022-11-07T10:43:36.755Z,100694.00
2022-11-07T10:46:13.649Z,100706.00
2022-11-07T10:48:54.471Z,100708.00
2022-11-07T10:51:34.746Z,100714.00
2022-11-07T10:54:03.556Z,100697.00
2022-11-07T10:56:32.801Z,100703.00
2022-11-07T10:59:03.127Z,100694.00
2022-11-07T11:01:31.961Z,100704.00
2022-11-07T11:04:02.171Z,100700.00
2022-11-07T11:06:32.326Z,100695.00
2022-11-07T11:09:16.189Z,100699.00
2022-11-07T11:11:51.995Z,100694.00
2022-11-07T11:14:22.933Z,100700.00
2022-11-07T11:16:56.356Z,100683.00
2022-11-07T11:19:30.093Z,100690.00
2022-11-07T11:22:02.225Z,100686.00
2022-11-07T11:24:37.519Z,100682.00
2022-11-07T11:27:16.685Z,100693.00
2022-11-07T11:29:55.519Z,100679.00
2022-11-07T11:32:32.171Z,100679.00
2022-11-07T11:35:16.985Z,100673.00
2022-11-07T11:37:58.125Z,100669.00
2022-11-07T11:40:28.726Z,100676.00
2022-11-07T11:43:06.573Z,100665.00
2022-11-07T11:45:45.502Z,100663.00
2022-11-07T11:48:25.795Z,100664.00
2022-11-07T11:51:03.966Z,100659.00
2022-11-07T11:53:32.674Z,100662.00
2022-11-07T11:56:40.536Z,100656.00
2022-11-07T11:59:52.705Z,100653.00
2022-11-07T12:03:06.134Z,100655.00
2022-11-07T12:06:06.591Z,100653.00
2022-11-07T12:09:09.211Z,100649.00
2022-11-07T12:11:54.337Z,100661.00
2022-11-07T12:15:03.868Z,100661.00
2022-11-07T12:17:43.126Z,100665.00
2022-11-07T12:20:23.522Z,100661.00
2022-11-07T12:23:20.777Z,100653.00
2022-11-07T12:26:02.322Z,100663.00
2022-11-07T12:28:47.764Z,100665.00
2022-11-07T12:31:32.515Z,100658.00
2022-11-07T12:34:14.466Z,100645.00
2022-11-07T12:37:04.566Z,100666.00
2022-11-07T12:40:28.179Z,100655.00
2022-11-07T12:43:13.643Z,100655.00
2022-11-07T12:45:55.159Z,100657.00
2022-11-07T12:49:06.090Z,100664.00
2022-11-07T12:51:50.727Z,100666.00
2022-11-07T12:54:50.978Z,100672.00
2022-11-07T12:57:24.950Z,100671.00
2022-11-07T13:00:06.704Z,100665.00
2022-11-07T13:02:56.208Z,100675.00
2022-11-07T13:06:00.875Z,100677.00
2022-11-07T13:08:38.965Z,100664.00
2022-11-07T13:11:19.769Z,100664.00
2022-11-07T13:14:23.717Z,100659.00
2022-11-07T13:17:06.109Z,100669.00
2022-11-07T13:19:38.017Z,100675.00
2022-11-07T13:22:20.465Z,100669.00
2022-11-07T13:24:58.456Z,100672.00
2022-11-07T13:27:36.542Z,100661.00
2022-11-07T13:30:35.977Z,100669.00
2022-11-07T13:33:06.834Z,100675.00
2022-11-07T13:35:38.352Z,100672.00
2022-11-07T13:38:16.118Z,100667.00
2022-11-07T13:40:49.839Z,100665.00
2022-11-07T13:43:24.668Z,100672.00
2022-11-07T13:45:59.121Z,100673.00
2022-11-07T13:48:44.004Z,100670.00
2022-11-07T13:51:21.882Z,100671.00
2022-11-07T13:54:03.898Z,100654.00
2022-11-07T13:56:42.136Z,100655.00
2022-11-07T13:59:25.647Z,100655.00
2022-11-07T14:01:58.138Z,100656.00
2022-11-07T14:04:29.880Z,100658.00
2022-11-07T14:07:02.501Z,100663.00
2022-11-07T14:09:34.334Z,100655.00
2022-11-07T14:12:03.208Z,100661.00
2022-11-07T14:14:32.669Z,100649.00
2022-11-07T14:17:03.131Z,100649.00
2022-11-07T14:19:32.329Z,100645.00
2022-11-07T14:22:01.601Z,100650.00
2022-11-07T14:24:32.757Z,100641.00
2022-11-07T14:27:08.795Z,100639.00
2022-11-07T14:29:37.636Z,100633.00
2022-11-07T14:32:09.076Z,100633.00
2022-11-07T14:34:46.103Z,100639.00
2022-11-07T14:37:18.026Z,100645.00
2022-11-07T14:39:47.141Z,100629.00
2022-11-07T14:42:20.570Z,100632.00
2022-11-07T14:44:55.228Z,100630.00
2022-11-07T14:47:31.999Z,100631.00
2022-11-07T14:50:02.951Z,100624.00
2022-11-07T14:52:39.324Z,100640.00
2022-11-07T14:55:20.908Z,100631.00
2022-11-07T14:57:50.988Z,100631.00
2022-11-07T15:00:23.115Z,100628.00
2022-11-07T15:02:57.352Z,100636.00
2022-11-07T15:05:29.442Z,100636.00
2022-11-07T15:08:00.566Z,100633.00
2022-11-07T15:10:34.213Z,100631.00
2022-11-07T15:13:06.598Z,100628.00
2022-11-07T15:15:38.085Z,100632.00
2022-11-07T15:18:20.466Z,100626.00
2022-11-07T15:21:00.272Z,100626.00
2022-11-07T15:23:32.679Z,100618.00
2022-11-07T15:26:13.027Z,100624.00
2022-11-07T15:28:52.764Z,100619.00
2022-11-07T15:31:26.331Z,100613.00
2022-11-07T15:33:58.949Z,100617.00
2022-11-07T15:36:27.857Z,100624.00
2022-11-07T15:38:57.081Z,100626.00
2022-11-07T15:41:25.796Z,100618.00
2022-11-07T15:43:54.471Z,100621.00
2022-11-07T15:46:30.130Z,100614.00
2022-11-07T15:49:00.400Z,100609.00
2022-11-07T15:51:29.132Z,100610.00
2022-11-07T15:53:58.304Z,100610.00
2022-11-07T15:56:27.890Z,100613.00
2022-11-07T15:58:57.175Z,100616.00
2022-11-07T16:01:26.248Z,100616.00
2022-11-07T16:03:55.490Z,100614.00
2022-11-07T16:06:31.879Z,100615.00
2022-11-07T16:09:00.920Z,100612.00
2022-11-07T16:11:29.627Z,100606.00
2022-11-07T16:14:29.541Z,100611.00
2022-11-07T16:16:50.500Z,100603.00
2022-11-07T16:19:22.450Z,100609.00
2022-11-07T16:21:52.667Z,100602.00
2022-11-07T16:24:21.505Z,100604.00
2022-11-07T16:26:52.042Z,100600.00
2022-11-07T16:29:20.766Z,100597.00
2022-11-07T16:31:49.583Z,100597.00
2022-11-07T16:34:18.304Z,100601.00
2022-11-07T16:36:48.930Z,100582.00
2022-11-07T16:39:23.373Z,100580.00
2022-11-07T16:41:52.105Z,100580.00
2022-11-07T16:44:26.209Z,100583.00
2022-11-07T16:47:06.928Z,100589.00
2022-11-07T16:49:35.917Z,100589.00
2022-11-07T16:52:05.029Z,100572.00
2022-11-07T16:54:35.110Z,100561.00
2022-11-07T16:57:05.558Z,100561.00
2022-11-07T16:59:34.264Z,100560.00
2022-11-07T17:02:06.518Z,100551.00
2022-11-07T17:04:37.810Z,100545.00
2022-11-07T17:07:07.055Z,100556.00
2022-11-07T17:09:37.828Z,100551.00
2022-11-07T17:12:13.467Z,100548.00
2022-11-07T17:14:42.440Z,100545.00
2022-11-07T17:17:14.140Z,100542.00
2022-11-07T17:19:43.521Z,100537.00
2022-11-07T17:22:13.757Z,100536.00
2022-11-07T17:24:45.187Z,100540.00
2022-11-07T17:27:23.963Z,100536.00
2022-11-07T17:29:53.929Z,100528.00
2022-11-07T17:32:23.328Z,100534.00
2022-11-07T17:35:10.980Z,100520.00
2022-11-07T17:37:49.398Z,100528.00
2022-11-07T17:40:30.616Z,100527.00
2022-11-07T17:43:00.951Z,100530.00
2022-11-07T17:45:30.530Z,100525.00
2022-11-07T17:47:59.614Z,100527.00
2022-11-07T17:50:29.027Z,100525.00
2022-11-07T17:52:58.425Z,100536.00
2022-11-07T17:55:30.432Z,100537.00
2022-11-07T17:57:59.757Z,100542.00
2022-11-07T18:00:29.104Z,100539.00
2022-11-07T18:02:58.488Z,100547.00
2022-11-07T18:05:33.439Z,100550.00
2022-11-07T18:08:02.888Z,100546.00
2022-11-07T18:10:33.645Z,100550.00
2022-11-07T18:13:04.791Z,100551.00
2022-11-07T18:15:35.700Z,100541.00
2022-11-07T18:18:10.655Z,100545.00
2022-11-07T18:20:40.063Z,100538.00
2022-11-07T18:23:11.211Z,100529.00
2022-11-07T18:25:42.437Z,100540.00
2022-11-07T18:28:11.689Z,100533.00
2022-11-07T18:30:41.157Z,100543.00
2022-11-07T18:33:10.415Z,100542.00
2022-11-07T18:35:42.188Z,100543.00
2022-11-07T18:38:11.367Z,100546.00
2022-11-07T18:40:44.670Z,100545.00
2022-11-07T18:43:14.051Z,100548.00
2022-11-07T18:45:43.694Z,100549.00
2022-11-07T18:48:13.467Z,100542.00
2022-11-07T18:50:43.615Z,100545.00
2022-11-07T18:53:13.133Z,100540.00
2022-11-07T18:55:56.936Z,100530.00
2022-11-07T18:58:26.575Z,100531.00
2022-11-07T19:00:56.097Z,100521.00
2022-11-07T19:03:25.518Z,100518.00
2022-11-07T19:06:01.392Z,100526.00
2022-11-07T19:08:31.471Z,100517.00
2022-11-07T19:11:05.208Z,100508.00
2022-11-07T19:13:37.594Z,100503.00
2022-11-07T19:16:09.855Z,100515.00
2022-11-07T19:18:39.421Z,100524.00
2022-11-07T19:21:09.064Z,100525.00
2022-11-07T19:23:40.371Z,100519.00
2022-11-07T19:26:14.088Z,100521.00
2022-11-07T19:28:43.561Z,100521.00
2022-11-07T19:31:14.065Z,100519.00
2022-11-07T19:33:44.851Z,100521.00
2022-11-07T19:36:21.625Z,100520.00
2022-11-07T19:38:51.343Z,100505.00
2022-11-07T19:41:22.152Z,100509.00
2022-11-07T19:43:53.712Z,100517.00
2022-11-07T19:46:29.171Z,100509.00
2022-11-07T19:49:03.159Z,100515.00
2022-11-07T19:51:37.046Z,100523.00
2022-11-07T19:54:25.352Z,100521.00
2022-11-07T19:57:00.730Z,100514.00
2022-11-07T19:59:29.995Z,100526.00
2022-11-07T20:02:30.698Z,100520.00
2022-11-07T20:04:48.310Z,100515.00
2022-11-07T20:07:17.613Z,100516.00
2022-11-07T20:09:47.266Z,100521.00
2022-11-07T20:12:17.840Z,100514.00
2022-11-07T20:14:47.317Z,100507.00
2022-11-07T20:17:17.073Z,100501.00
2022-11-07T20:19:46.174Z,100490.00
2022-11-07T20:22:15.435Z,100495.00
2022-11-07T20:24:44.603Z,100499.00
2022-11-07T20:27:13.830Z,100479.00
2022-11-07T20:29:47.306Z,100476.00
2022-11-07T20:32:16.463Z,100476.00
2022-11-07T20:34:49.956Z,100475.00
2022-11-07T20:37:22.509Z,100476.00
2022-11-07T20:39:52.300Z,100477.00
2022-11-07T20:42:21.439Z,100474.00
2022-11-07T20:44:52.637Z,100464.00
2022-11-07T20:47:22.874Z,100473.00
2022-11-07T20:49:51.915Z,100480.00
2022-11-07T20:52:21.122Z,100471.00
2022-11-07T20:54:49.977Z,100472.00
2022-11-07T20:57:20.214Z,100467.00
2022-11-07T20:59:49.131Z,100451.00
2022-11-07T21:02:19.601Z,100456.00
2022-11-07T21:05:11.162Z,100447.00
2022-11-07T21:07:37.757Z,100461.00
2022-11-07T21:10:08.070Z,100460.00
2022-11-07T21:12:36.946Z,100447.00
2022-11-07T21:15:09.722Z,100450.00
2022-11-07T21:17:40.277Z,100460.00
2022-11-07T21:20:10.359Z,100450.00
2022-11-07T21:22:39.219Z,100453.00
2022-11-07T21:25:09.698Z,100447.00
2022-11-07T21:27:38.402Z,100460.00
2022-11-07T21:30:09.456Z,100448.00
2022-11-07T21:32:39.751Z,100450.00
2022-11-07T21:35:09.929Z,100454.00
2022-11-07T21:37:38.681Z,100445.00
2022-11-07T21:40:09.391Z,100445.00
2022-11-07T21:42:38.064Z,100445.00
2022-11-07T21:45:07.895Z,100437.00
2022-11-07T21:47:38.102Z,100441.00
2022-11-07T21:50:38.262Z,100432.00
2022-11-07T21:53:03.404Z,100441.00
2022-11-07T21:55:32.078Z,100447.00
2022-11-07T21:58:00.825Z,100446.00
2022-11-07T22:00:34.741Z,100424.00
2022-11-07T22:03:05.203Z,100436.00
2022-11-07T22:05:35.381Z,100436.00
2022-11-07T22:08:03.978Z,100430.00
2022-11-07T22:10:32.591Z,100423.00
2022-11-07T22:13:01.154Z,100415.00
2022-11-07T22:15:29.923Z,100407.00
2022-11-07T22:17:58.581Z,100405.00
2022-11-07T22:20:27.176Z,100400.00
2022-11-07T22:22:57.182Z,100401.00
2022-11-07T22:25:25.754Z,100399.00
2022-11-07T22:27:54.366Z,100378.00
2022-11-07T22:30:23.098Z,100365.00
2022-11-07T22:32:52.387Z,100370.00
2022-11-07T22:35:21.034Z,100376.00
2022-11-07T22:37:49.610Z,100375.00
2022-11-07T22:40:20.473Z,100380.00
2022-11-07T22:42:49.248Z,100373.00
2022-11-07T22:45:18.039Z,100363.00
2022-11-07T22:47:46.601Z,100363.00
2022-11-07T22:50:15.195Z,100373.00
2022-11-07T22:52:43.826Z,100365.00
2022-11-07T22:55:12.437Z,100367.00
2022-11-07T22:57:43.082Z,100350.00
2022-11-07T23:00:21.475Z,100349.00
2022-11-07T23:02:50.769Z,100340.00
2022-11-07T23:05:19.484Z,100344.00
2022-11-07T23:07:51.385Z,100348.00
2022-11-07T23:10:20.570Z,100339.00
2022-11-07T23:12:50.550Z,100335.00
2022-11-07T23:15:19.229Z,100322.00
2022-11-07T23:17:47.831Z,100325.00
2022-11-07T23:20:30.228Z,100321.00
2022-11-07T23:22:58.894Z,100306.00
2022-11-07T23:25:27.584Z,100307.00
2022-11-07T23:27:57.583Z,100305.00
2022-11-07T23:30:26.167Z,100315.00
2022-11-07T23:32:54.741Z,100304.00
2022-11-07T23:35:23.359Z,100311.00
2022-11-07T23:37:51.926Z,100306.00
2022-11-07T23:40:20.494Z,100308.00
2022-11-07T23:42:49.103Z,100297.00
2022-11-07T23:45:36.551Z,100293.00
2022-11-07T23:48:23.267Z,100292.00
2022-11-07T23:51:03.783Z,100287.00
2022-11-07T23:53:53.460Z,100283.00
2022-11-07T23:56:25.401Z,100287.00
2022-11-07T23:59:12.091Z,100281.00
